aviador You're here:

YBCG Decoded Metar

COOLANGATTA in AUSTRALIA
Report Time2017-11-25 07:00:00
UTC Time2017-11-25 07:24:35
Flight Rules mvfr MVFR
Wind130° at 12 kt
W.Decomp.*RWY 14: 11.2 kt HW 4.3 kt LCW
RWY 17: 7.6 kt HW 9.3 kt LCW
W.Rank130° ranks 16
Current wind is above 130° avg. (10.2)
Visibility9999 m
Phenomena:N/A
Clouds:Broken 021 Hf
Expected CloudBase > 2,000 ft AGL from Temp-Dew spread
Ceiling2,100 ft
Temp24°C (ISA +9)
Dew Point19°C (74% RH)
AAT22.9°C
QNH1014 hPa
Density Alt1,325 ft
Elevation20 ft
Report Wrong Elevation
Raw Report
YBCG 250700Z AUTO 13012KT 9999 // BKN021 24/19 Q1014
RF00.0/000.0=

Extra information for YBCG:More info

Metar Taf Metar & Taf Last 4 Metars F.Rules Stats Wind Profile Meteogram Temp Stats Airport Information Weather charts Add Link Nearby VenuesMetar ALERT Operation Metar Decoded Social comments